createdAt,value
2019-05-20T00:00:47.843Z,26.80
2019-05-20T00:01:47.870Z,26.40
2019-05-20T00:02:47.857Z,26.60
2019-05-20T00:03:47.808Z,27.20
2019-05-20T00:04:47.803Z,27.00
2019-05-20T00:05:47.792Z,28.00
2019-05-20T00:06:47.815Z,27.40
2019-05-20T00:07:47.762Z,28.30
2019-05-20T00:08:47.761Z,27.50
2019-05-20T00:09:47.869Z,28.80
2019-05-20T00:10:47.774Z,28.30
2019-05-20T00:11:47.752Z,29.10
2019-05-20T00:12:47.720Z,30.30
2019-05-20T00:13:47.701Z,30.10
2019-05-20T00:14:47.686Z,30.10
2019-05-20T00:15:47.714Z,29.80
2019-05-20T00:16:47.697Z,30.00
2019-05-20T00:17:47.655Z,30.80
2019-05-20T00:18:47.643Z,31.50
2019-05-20T00:19:50.655Z,31.30
2019-05-20T00:20:47.628Z,33.00
2019-05-20T00:21:47.647Z,32.90
2019-05-20T00:22:47.605Z,32.60
2019-05-20T00:23:47.599Z,32.30
2019-05-20T00:24:47.585Z,31.80
2019-05-20T00:25:47.580Z,31.50
2019-05-20T00:26:47.590Z,33.20
2019-05-20T00:27:47.558Z,32.40
2019-05-20T00:28:47.537Z,32.90
2019-05-20T00:29:47.525Z,32.70
2019-05-20T00:30:47.514Z,32.80
2019-05-20T00:31:47.537Z,33.40
2019-05-20T00:32:47.494Z,33.80
2019-05-20T00:33:47.488Z,35.50
2019-05-20T00:34:47.476Z,34.90
2019-05-20T00:35:47.466Z,35.80
2019-05-20T00:36:47.482Z,35.80
2019-05-20T00:37:47.436Z,37.20
2019-05-20T00:38:47.428Z,37.60
2019-05-20T00:39:47.428Z,37.30
2019-05-20T00:40:47.411Z,38.20
2019-05-20T00:41:47.436Z,37.40
2019-05-20T00:42:47.389Z,38.00
2019-05-20T00:43:47.378Z,40.70
2019-05-20T00:44:47.373Z,40.00
2019-05-20T00:45:47.367Z,40.20
2019-05-20T00:46:47.387Z,40.20
2019-05-20T00:47:47.345Z,42.10
2019-05-20T00:48:47.327Z,42.40
2019-05-20T00:49:47.338Z,41.20
2019-05-20T00:50:47.314Z,43.60
2019-05-20T00:51:47.328Z,44.80
2019-05-20T00:52:47.285Z,45.60
2019-05-20T00:53:47.278Z,51.90
2019-05-20T00:54:47.270Z,54.20
2019-05-20T00:55:47.262Z,59.50
2019-05-20T00:56:47.281Z,61.20
2019-05-20T00:57:47.233Z,63.30
2019-05-20T00:58:47.246Z,61.40
2019-05-20T00:59:47.223Z,59.90
2019-05-20T01:00:47.240Z,58.90
2019-05-20T01:01:47.207Z,58.00
2019-05-20T01:02:56.618Z,58.20
2019-05-20T01:03:48.175Z,57.30
2019-05-20T01:04:47.166Z,57.80
2019-05-20T01:05:47.150Z,56.20
2019-05-20T01:06:47.138Z,56.90
2019-05-20T01:07:47.157Z,60.40
2019-05-20T01:08:47.122Z,62.50
2019-05-20T01:09:47.113Z,62.50
2019-05-20T01:10:47.097Z,63.60
2019-05-20T01:11:47.087Z,65.50
2019-05-20T01:12:47.122Z,68.40
2019-05-20T01:13:47.088Z,67.80
2019-05-20T01:14:47.054Z,69.10
2019-05-20T01:15:47.046Z,68.70
2019-05-20T01:16:47.037Z,67.00
2019-05-20T01:17:47.060Z,65.70
2019-05-20T01:18:47.014Z,68.10
2019-05-20T01:19:47.020Z,66.60
2019-05-20T01:20:47.008Z,65.90
2019-05-20T01:21:46.990Z,66.00
2019-05-20T01:22:47.001Z,63.50
2019-05-20T01:23:46.961Z,64.90
2019-05-20T01:24:46.959Z,65.70
2019-05-20T01:25:46.964Z,59.30
2019-05-20T01:26:46.937Z,62.10
2019-05-20T01:27:46.998Z,64.90
2019-05-20T01:28:46.920Z,71.70
2019-05-20T01:29:46.943Z,75.50
2019-05-20T01:30:46.895Z,79.80
2019-05-20T01:31:46.886Z,78.40
2019-05-20T01:32:46.905Z,76.40
2019-05-20T01:33:46.865Z,74.10
2019-05-20T01:34:46.858Z,71.10
2019-05-20T01:35:46.840Z,69.40
2019-05-20T01:36:46.831Z,68.30
2019-05-20T01:37:46.842Z,71.70
2019-05-20T01:38:46.813Z,66.90
2019-05-20T01:39:46.802Z,72.50
2019-05-20T01:40:46.789Z,67.30
2019-05-20T01:41:46.788Z,66.10
2019-05-20T01:42:46.798Z,65.60
2019-05-20T01:43:46.765Z,64.50
2019-05-20T01:44:46.748Z,73.10
2019-05-20T01:45:46.744Z,78.70
2019-05-20T01:46:46.735Z,79.20
2019-05-20T01:47:46.747Z,81.70
2019-05-20T01:48:46.711Z,84.60
2019-05-20T01:49:46.706Z,85.10
2019-05-20T01:50:46.685Z,82.40
2019-05-20T01:51:46.674Z,85.50
2019-05-20T01:52:46.698Z,80.70
2019-05-20T01:53:46.656Z,86.50
2019-05-20T01:54:46.643Z,86.50
2019-05-20T01:55:46.645Z,82.20
2019-05-20T01:56:46.622Z,84.90
2019-05-20T01:57:46.660Z,84.40
2019-05-20T01:58:46.609Z,83.10
2019-05-20T01:59:46.601Z,80.30
2019-05-20T02:00:46.584Z,81.60
2019-05-20T02:01:46.573Z,81.80
2019-05-20T02:02:46.599Z,80.70
2019-05-20T02:03:46.551Z,88.20
2019-05-20T02:04:46.541Z,88.70
2019-05-20T02:05:46.531Z,92.40
2019-05-20T02:06:46.519Z,93.30
2019-05-20T02:07:46.538Z,90.90
2019-05-20T02:08:46.518Z,92.90
2019-05-20T02:09:46.497Z,94.90
2019-05-20T02:10:46.478Z,100.30
2019-05-20T02:11:46.465Z,99.00
2019-05-20T02:12:46.480Z,99.40
2019-05-20T02:13:46.442Z,98.20
2019-05-20T02:14:46.438Z,91.50
2019-05-20T02:15:46.426Z,93.80
2019-05-20T02:16:46.414Z,94.20
2019-05-20T02:17:46.426Z,93.20
2019-05-20T02:18:46.402Z,92.40
2019-05-20T02:19:46.382Z,85.50
2019-05-20T02:20:46.371Z,81.10
2019-05-20T02:21:46.365Z,87.00
2019-05-20T02:22:46.378Z,83.90
2019-05-20T02:23:46.344Z,97.10
2019-05-20T02:24:46.341Z,96.10
2019-05-20T02:25:46.948Z,94.40
2019-05-20T02:26:46.311Z,93.80
2019-05-20T02:27:46.318Z,90.60
2019-05-20T02:28:46.282Z,95.50
2019-05-20T02:29:46.283Z,90.80
2019-05-20T02:30:46.292Z,90.10
2019-05-20T02:31:46.256Z,92.70
2019-05-20T02:32:46.271Z,99.20
2019-05-20T02:33:51.834Z,101.60
2019-05-20T02:34:47.226Z,112.00
2019-05-20T02:35:46.215Z,112.30
2019-05-20T02:36:46.193Z,103.80
2019-05-20T02:37:46.213Z,105.90
2019-05-20T02:38:46.179Z,101.90
2019-05-20T02:39:46.163Z,99.30
2019-05-20T02:40:46.157Z,94.20
2019-05-20T02:41:46.160Z,88.90
2019-05-20T02:42:46.160Z,100.80
2019-05-20T02:43:46.123Z,111.80
2019-05-20T02:44:46.127Z,115.80
2019-05-20T02:45:46.099Z,120.00
2019-05-20T02:46:46.095Z,119.60
2019-05-20T02:47:46.107Z,119.00
2019-05-20T02:48:46.071Z,109.30
2019-05-20T02:49:46.058Z,106.10
2019-05-20T02:50:46.051Z,108.70
2019-05-20T02:51:46.043Z,110.30
2019-05-20T02:52:46.059Z,114.70
2019-05-20T02:53:46.020Z,119.10
2019-05-20T02:54:46.007Z,118.70
2019-05-20T02:55:46.005Z,111.20
2019-05-20T02:56:45.984Z,115.30
2019-05-20T02:57:45.999Z,115.40
2019-05-20T02:58:56.862Z,118.10
2019-05-20T02:59:45.952Z,117.70
2019-05-20T03:00:45.945Z,118.20
2019-05-20T03:01:45.930Z,116.50
2019-05-20T03:02:45.947Z,114.10
2019-05-20T03:03:45.913Z,113.90
2019-05-20T03:04:45.897Z,110.00
2019-05-20T03:05:45.885Z,110.70
2019-05-20T03:06:45.885Z,112.30
2019-05-20T03:07:45.867Z,109.80
2019-05-20T03:08:45.883Z,113.00
2019-05-20T03:09:45.844Z,114.60
2019-05-20T03:10:45.837Z,112.60
2019-05-20T03:11:45.825Z,111.90
2019-05-20T03:12:45.814Z,109.00
2019-05-20T03:13:45.831Z,107.80
2019-05-20T03:14:45.797Z,108.80
2019-05-20T03:15:45.811Z,112.60
2019-05-20T03:16:45.768Z,114.20
2019-05-20T03:17:45.759Z,109.10
2019-05-20T03:18:45.773Z,113.80
2019-05-20T03:19:45.751Z,109.70
2019-05-20T03:20:45.722Z,116.50
2019-05-20T03:21:45.723Z,102.90
2019-05-20T03:22:45.710Z,104.90
2019-05-20T03:23:45.718Z,110.80
2019-05-20T03:24:45.680Z,109.90
2019-05-20T03:25:45.670Z,109.40
2019-05-20T03:26:45.665Z,106.60
2019-05-20T03:27:45.657Z,110.70
2019-05-20T03:28:45.666Z,115.90
2019-05-20T03:29:45.625Z,118.70
2019-05-20T03:30:45.643Z,120.50
2019-05-20T03:31:45.611Z,121.30
2019-05-20T03:32:45.603Z,130.50
2019-05-20T03:33:45.616Z,128.70
2019-05-20T03:34:54.142Z,132.10
2019-05-20T03:35:46.596Z,130.60
2019-05-20T03:36:45.551Z,135.60
2019-05-20T03:37:45.545Z,131.00
2019-05-20T03:38:45.558Z,124.60
2019-05-20T03:39:45.528Z,126.30
2019-05-20T03:40:45.511Z,125.80
2019-05-20T03:41:45.503Z,125.90
2019-05-20T03:42:45.493Z,128.60
2019-05-20T03:43:45.508Z,127.20
2019-05-20T03:44:45.476Z,125.20
2019-05-20T03:45:45.455Z,127.20
2019-05-20T03:46:45.447Z,133.30
2019-05-20T03:47:45.437Z,138.00
2019-05-20T03:48:45.455Z,134.90
2019-05-20T03:49:45.411Z,133.10
2019-05-20T03:50:45.406Z,128.30
2019-05-20T03:51:45.393Z,129.60
2019-05-20T03:52:45.380Z,121.00
2019-05-20T03:53:45.399Z,111.60
2019-05-20T03:54:45.361Z,104.60
2019-05-20T03:55:45.365Z,111.00
2019-05-20T03:56:45.346Z,120.20
2019-05-20T03:57:45.326Z,113.70
2019-05-20T03:58:45.343Z,123.50
2019-05-20T03:59:45.303Z,127.80
2019-05-20T04:00:45.311Z,130.90
2019-05-20T04:01:45.290Z,137.30
2019-05-20T04:02:45.276Z,139.50
2019-05-20T04:03:45.288Z,134.70
2019-05-20T04:05:00.882Z,131.80
2019-05-20T04:05:46.244Z,132.70
2019-05-20T04:06:45.230Z,129.70
2019-05-20T04:07:45.219Z,127.10
2019-05-20T04:08:45.235Z,125.20
2019-05-20T04:09:45.203Z,120.20
2019-05-20T04:10:45.193Z,115.00
2019-05-20T04:11:45.175Z,119.50
2019-05-20T04:12:45.167Z,118.80
2019-05-20T04:13:45.182Z,120.90
2019-05-20T04:14:45.146Z,119.90
2019-05-20T04:15:45.141Z,121.50
2019-05-20T04:16:45.124Z,123.10
2019-05-20T04:17:45.114Z,115.00
2019-05-20T04:18:45.135Z,117.20
2019-05-20T04:19:45.099Z,122.40
2019-05-20T04:20:45.085Z,125.70
2019-05-20T04:21:45.066Z,120.40
2019-05-20T04:22:45.054Z,115.20
2019-05-20T04:23:45.103Z,115.10
2019-05-20T04:24:45.035Z,109.00
2019-05-20T04:25:45.034Z,110.70
2019-05-20T04:26:45.025Z,110.10
2019-05-20T04:27:45.004Z,101.10
2019-05-20T04:28:45.014Z,113.50
2019-05-20T04:29:44.988Z,116.60
2019-05-20T04:30:44.976Z,110.50
2019-05-20T04:31:44.960Z,109.30
2019-05-20T04:32:44.972Z,105.60
2019-05-20T04:33:44.976Z,106.70
2019-05-20T04:34:44.935Z,104.70
2019-05-20T04:35:49.269Z,102.70
2019-05-20T04:36:44.916Z,99.80
2019-05-20T04:37:44.901Z,103.80
2019-05-20T04:38:44.918Z,99.30
2019-05-20T04:39:44.880Z,97.50
2019-05-20T04:40:44.867Z,94.00
2019-05-20T04:41:44.881Z,96.40
2019-05-20T04:42:44.873Z,100.20
2019-05-20T04:43:44.902Z,89.80
2019-05-20T04:44:44.827Z,100.50
2019-05-20T04:45:44.821Z,96.50
2019-05-20T04:46:44.810Z,94.70
2019-05-20T04:47:44.799Z,94.70
2019-05-20T04:48:44.812Z,94.50
2019-05-20T04:49:44.780Z,92.60
2019-05-20T04:50:44.762Z,94.90
2019-05-20T04:51:44.755Z,94.60
2019-05-20T04:52:44.799Z,94.10
2019-05-20T04:53:44.759Z,93.80
2019-05-20T04:54:44.725Z,91.60
2019-05-20T04:55:44.707Z,93.30
2019-05-20T04:56:44.695Z,91.40
2019-05-20T04:57:44.706Z,91.20
2019-05-20T04:58:44.712Z,93.50
2019-05-20T04:59:44.665Z,87.50
2019-05-20T05:00:44.652Z,87.90
2019-05-20T05:01:44.644Z,85.40
2019-05-20T05:02:44.633Z,84.10
2019-05-20T05:03:44.659Z,84.30
2019-05-20T05:04:44.610Z,82.30
2019-05-20T05:05:44.607Z,80.70
2019-05-20T05:06:44.591Z,84.50
2019-05-20T05:07:44.577Z,81.70
2019-05-20T05:08:44.589Z,80.20
2019-05-20T05:09:44.560Z,78.80
2019-05-20T05:10:44.542Z,76.00
2019-05-20T05:11:44.534Z,77.20
2019-05-20T05:12:44.517Z,71.40
2019-05-20T05:13:44.535Z,71.50
2019-05-20T05:14:44.507Z,72.30
2019-05-20T05:15:44.486Z,68.80
2019-05-20T05:16:44.474Z,69.00
2019-05-20T05:17:44.483Z,67.40
2019-05-20T05:18:44.479Z,68.30
2019-05-20T05:19:44.460Z,73.00
2019-05-20T05:20:44.438Z,67.10
2019-05-20T05:21:44.427Z,72.00
2019-05-20T05:22:44.411Z,72.20
2019-05-20T05:23:58.337Z,68.60
2019-05-20T05:24:45.395Z,70.40
2019-05-20T05:25:44.381Z,67.80
2019-05-20T05:26:47.571Z,68.10
2019-05-20T05:27:44.362Z,65.20
2019-05-20T05:28:44.375Z,66.20
2019-05-20T05:29:44.335Z,68.10
2019-05-20T05:30:44.323Z,66.30
2019-05-20T05:31:44.310Z,67.30
2019-05-20T05:32:45.059Z,64.60
2019-05-20T05:33:44.336Z,64.10
2019-05-20T05:34:44.283Z,68.20
2019-05-20T05:35:52.710Z,65.10
2019-05-20T05:36:45.261Z,63.20
2019-05-20T05:37:44.251Z,64.20
2019-05-20T05:38:44.240Z,73.60
2019-05-20T05:39:44.254Z,70.70
2019-05-20T05:40:44.216Z,71.00
2019-05-20T05:41:44.207Z,71.10
2019-05-20T05:42:44.198Z,69.90
2019-05-20T05:43:44.201Z,67.40
2019-05-20T05:44:44.206Z,68.90
2019-05-20T05:45:44.163Z,65.60
2019-05-20T05:46:44.150Z,66.90
2019-05-20T05:47:44.147Z,68.80
2019-05-20T05:48:44.133Z,65.60
2019-05-20T05:49:44.147Z,66.30
2019-05-20T05:50:44.117Z,66.70
2019-05-20T05:51:44.102Z,64.40
2019-05-20T05:52:44.088Z,62.70
2019-05-20T05:53:44.098Z,63.60
2019-05-20T05:54:44.099Z,61.60
2019-05-20T05:55:44.060Z,62.90
2019-05-20T05:56:44.054Z,61.80
2019-05-20T05:57:44.036Z,66.50
2019-05-20T05:58:44.028Z,67.00
2019-05-20T05:59:44.036Z,68.70
2019-05-20T06:00:43.999Z,67.70
2019-05-20T06:01:44.001Z,68.20
2019-05-20T06:02:43.996Z,68.20
2019-05-20T06:03:43.970Z,68.40
2019-05-20T06:04:43.986Z,66.80
2019-05-20T06:05:43.960Z,65.20
2019-05-20T06:06:43.940Z,67.90
2019-05-20T06:07:43.927Z,70.00
2019-05-20T06:08:43.915Z,68.20
2019-05-20T06:09:43.931Z,67.50
2019-05-20T06:10:43.891Z,73.00
2019-05-20T06:11:43.885Z,67.20
2019-05-20T06:12:43.880Z,69.00
2019-05-20T06:13:43.865Z,73.50
2019-05-20T06:14:43.892Z,71.20
2019-05-20T06:15:43.852Z,71.50
2019-05-20T06:16:43.829Z,78.30
2019-05-20T06:17:43.825Z,72.90
2019-05-20T06:18:43.810Z,72.90
2019-05-20T06:19:43.830Z,72.50
2019-05-20T06:20:43.787Z,69.00
2019-05-20T06:21:43.778Z,72.30
2019-05-20T06:22:43.771Z,70.10
2019-05-20T06:23:43.773Z,68.80
2019-05-20T06:24:43.771Z,72.30
2019-05-20T06:25:43.737Z,76.90
2019-05-20T06:26:43.731Z,72.30
2019-05-20T06:27:43.720Z,73.70
2019-05-20T06:28:43.704Z,78.10
2019-05-20T06:29:43.725Z,79.30
2019-05-20T06:30:43.683Z,74.30
2019-05-20T06:31:43.677Z,71.70
2019-05-20T06:32:43.669Z,76.80
2019-05-20T06:33:43.656Z,77.30
2019-05-20T06:34:43.665Z,77.20
2019-05-20T06:35:43.630Z,74.00
2019-05-20T06:36:43.618Z,72.60
2019-05-20T06:37:43.610Z,73.90
2019-05-20T06:38:43.606Z,74.10
2019-05-20T06:39:43.614Z,75.70
2019-05-20T06:40:43.575Z,75.80
2019-05-20T06:41:43.567Z,78.40
2019-05-20T06:42:43.554Z,73.50
2019-05-20T06:43:43.548Z,76.70
2019-05-20T06:44:52.164Z,70.60
2019-05-20T06:45:44.528Z,69.40
2019-05-20T06:46:43.514Z,67.00
2019-05-20T06:47:43.510Z,78.30
2019-05-20T06:48:43.492Z,71.60
2019-05-20T06:49:43.506Z,79.20
2019-05-20T06:50:43.472Z,76.00
2019-05-20T06:51:43.468Z,87.80
2019-05-20T06:52:43.446Z,80.40
2019-05-20T06:53:43.443Z,92.80
2019-05-20T06:54:43.454Z,85.30
2019-05-20T06:55:43.419Z,84.30
2019-05-20T06:56:43.480Z,89.30
2019-05-20T06:57:43.401Z,77.50
2019-05-20T06:58:43.392Z,83.60
2019-05-20T06:59:43.404Z,94.60
2019-05-20T07:00:43.371Z,88.40
2019-05-20T07:01:43.361Z,86.20
2019-05-20T07:02:43.355Z,88.90
2019-05-20T07:03:43.344Z,87.30
2019-05-20T07:04:43.350Z,102.80
2019-05-20T07:05:43.326Z,89.50
2019-05-20T07:06:47.237Z,103.70
2019-05-20T07:07:43.291Z,91.20
2019-05-20T07:08:43.289Z,94.60
2019-05-20T07:09:43.313Z,86.80
2019-05-20T07:10:43.263Z,87.50
2019-05-20T07:11:52.360Z,92.10
2019-05-20T07:12:44.251Z,91.40
2019-05-20T07:13:43.228Z,86.20
2019-05-20T07:14:43.242Z,92.90
2019-05-20T07:15:43.210Z,88.70
2019-05-20T07:16:43.201Z,83.10
2019-05-20T07:17:43.186Z,95.10
2019-05-20T07:18:43.178Z,83.90
2019-05-20T07:19:43.187Z,79.60
2019-05-20T07:20:43.162Z,77.40
2019-05-20T07:21:43.150Z,76.80
2019-05-20T07:22:55.180Z,74.40
2019-05-20T07:23:44.124Z,72.70
2019-05-20T07:24:43.159Z,71.20
2019-05-20T07:25:43.122Z,69.90
2019-05-20T07:26:43.096Z,83.40
2019-05-20T07:27:43.089Z,72.80
2019-05-20T07:28:43.074Z,72.80
2019-05-20T07:29:43.092Z,73.40
2019-05-20T07:30:43.050Z,72.30
2019-05-20T07:31:43.044Z,70.00
2019-05-20T07:32:43.045Z,66.90
2019-05-20T07:33:43.027Z,75.60
2019-05-20T07:34:43.033Z,73.80
2019-05-20T07:35:42.995Z,69.30
2019-05-20T07:36:43.014Z,85.60
2019-05-20T07:37:42.987Z,76.50
2019-05-20T07:38:42.965Z,71.70
2019-05-20T07:39:42.983Z,77.50
2019-05-20T07:40:42.942Z,76.80
2019-05-20T07:41:42.934Z,76.10
2019-05-20T07:42:42.922Z,83.00
2019-05-20T07:43:42.927Z,74.30
2019-05-20T07:44:42.936Z,77.90
2019-05-20T07:45:42.894Z,75.70
2019-05-20T07:46:42.883Z,80.60
2019-05-20T07:47:42.873Z,73.40
2019-05-20T07:48:42.873Z,75.40
2019-05-20T07:49:42.873Z,73.00
2019-05-20T07:50:42.839Z,73.70
2019-05-20T07:51:42.831Z,76.30
2019-05-20T07:52:42.816Z,73.30
2019-05-20T07:53:42.819Z,76.10
2019-05-20T07:54:42.822Z,68.60
2019-05-20T07:55:42.807Z,69.30
2019-05-20T07:56:42.782Z,74.50
2019-05-20T07:57:42.764Z,72.70
2019-05-20T07:58:42.757Z,80.40
2019-05-20T07:59:42.745Z,83.00
2019-05-20T08:00:42.766Z,75.70
2019-05-20T08:01:42.722Z,82.80
2019-05-20T08:02:42.709Z,77.40
2019-05-20T08:03:42.703Z,80.70
2019-05-20T08:04:42.769Z,75.50
2019-05-20T08:05:42.706Z,82.90
2019-05-20T08:06:42.670Z,84.00
2019-05-20T08:07:51.781Z,79.20
2019-05-20T08:08:43.643Z,76.40
2019-05-20T08:09:45.978Z,88.20
2019-05-20T08:10:42.654Z,75.70
2019-05-20T08:11:42.614Z,84.10
2019-05-20T08:12:42.607Z,79.00
2019-05-20T08:13:42.609Z,77.20
2019-05-20T08:14:42.588Z,79.50
2019-05-20T08:15:42.600Z,79.50
2019-05-20T08:16:42.572Z,80.70
2019-05-20T08:17:42.554Z,86.80
2019-05-20T08:18:42.545Z,82.00
2019-05-20T08:19:42.536Z,77.50
2019-05-20T08:20:42.554Z,80.40
2019-05-20T08:21:42.511Z,79.70
2019-05-20T08:22:42.515Z,86.70
2019-05-20T08:23:42.489Z,92.80
2019-05-20T08:24:42.488Z,82.70
2019-05-20T08:25:42.494Z,74.30
2019-05-20T08:26:42.460Z,86.60
2019-05-20T08:27:42.443Z,79.20
2019-05-20T08:28:42.437Z,76.20
2019-05-20T08:29:42.424Z,79.10
2019-05-20T08:30:42.450Z,84.30
2019-05-20T08:31:42.459Z,80.80
2019-05-20T08:32:42.396Z,82.10
2019-05-20T08:33:42.400Z,73.50
2019-05-20T08:34:42.385Z,80.00
2019-05-20T08:35:42.385Z,77.90
2019-05-20T08:36:42.390Z,81.20
2019-05-20T08:37:45.785Z,73.10
2019-05-20T08:38:42.333Z,71.60
2019-05-20T08:39:42.319Z,66.80
2019-05-20T08:40:42.689Z,67.10
2019-05-20T08:41:42.325Z,64.00
2019-05-20T08:42:42.398Z,66.10
2019-05-20T08:43:42.305Z,71.60
2019-05-20T08:44:42.263Z,68.60
2019-05-20T08:45:42.283Z,67.90
2019-05-20T08:46:42.277Z,70.90
2019-05-20T08:47:42.236Z,70.50
2019-05-20T08:48:42.252Z,69.70
2019-05-20T08:49:42.730Z,65.50
2019-05-20T08:50:42.227Z,72.00
2019-05-20T08:51:42.194Z,71.00
2019-05-20T08:52:42.182Z,73.30
2019-05-20T08:53:42.169Z,77.10
2019-05-20T08:54:42.157Z,71.70
2019-05-20T08:55:42.173Z,73.30
2019-05-20T08:56:42.149Z,72.70
2019-05-20T08:57:42.149Z,71.30
2019-05-20T08:58:42.123Z,79.90
2019-05-20T08:59:42.105Z,79.00
2019-05-20T09:00:42.137Z,77.90
2019-05-20T09:01:42.083Z,78.50
2019-05-20T09:02:42.081Z,78.40
2019-05-20T09:03:42.069Z,72.80
2019-05-20T09:04:42.056Z,73.80
2019-05-20T09:05:42.077Z,79.00
2019-05-20T09:06:42.026Z,75.20
2019-05-20T09:07:42.029Z,77.70
2019-05-20T09:08:42.018Z,75.50
2019-05-20T09:09:42.001Z,75.00
2019-05-20T09:10:42.034Z,78.10
2019-05-20T09:11:41.978Z,73.50
2019-05-20T09:12:41.966Z,78.40
2019-05-20T09:13:41.962Z,76.90
2019-05-20T09:14:41.945Z,79.30
2019-05-20T09:15:45.256Z,79.80
2019-05-20T09:16:41.932Z,77.50
2019-05-20T09:17:41.916Z,82.30
2019-05-20T09:18:41.919Z,84.00
2019-05-20T09:19:41.904Z,80.10
2019-05-20T09:20:41.975Z,85.90
2019-05-20T09:21:41.871Z,78.80
2019-05-20T09:22:41.863Z,85.30
2019-05-20T09:23:41.852Z,80.70
2019-05-20T09:24:41.885Z,87.00
2019-05-20T09:25:41.869Z,78.90
2019-05-20T09:26:41.816Z,84.10
2019-05-20T09:27:41.809Z,79.10
2019-05-20T09:28:41.808Z,83.50
2019-05-20T09:29:41.796Z,80.40
2019-05-20T09:30:41.801Z,79.20
2019-05-20T09:31:41.763Z,78.60
2019-05-20T09:32:42.912Z,80.50
2019-05-20T09:33:41.742Z,75.30
2019-05-20T09:34:41.742Z,77.10
2019-05-20T09:35:42.183Z,77.20
2019-05-20T09:36:41.722Z,79.90
2019-05-20T09:37:41.703Z,79.60
2019-05-20T09:38:41.704Z,75.30
2019-05-20T09:39:41.681Z,76.90
2019-05-20T09:40:41.713Z,73.00
2019-05-20T09:41:41.658Z,75.70
2019-05-20T09:42:41.649Z,71.50
2019-05-20T09:43:41.636Z,72.30
2019-05-20T09:44:41.622Z,68.50
2019-05-20T09:45:41.619Z,68.30
2019-05-20T09:46:41.630Z,70.00
2019-05-20T09:47:41.595Z,66.90
2019-05-20T09:48:41.584Z,67.20
2019-05-20T09:49:41.571Z,72.10
2019-05-20T09:50:41.567Z,72.00
2019-05-20T09:51:41.583Z,78.30
2019-05-20T09:52:41.542Z,72.50
2019-05-20T09:53:41.531Z,75.50
2019-05-20T09:54:45.344Z,76.20
2019-05-20T09:55:41.511Z,73.30
2019-05-20T09:56:41.523Z,77.30
2019-05-20T09:57:41.488Z,76.30
2019-05-20T09:58:41.492Z,77.60
2019-05-20T09:59:43.625Z,77.10
2019-05-20T10:00:41.450Z,76.20
2019-05-20T10:01:41.492Z,70.90
2019-05-20T10:02:41.473Z,72.80
2019-05-20T10:03:41.425Z,68.30
2019-05-20T10:04:41.411Z,72.10
2019-05-20T10:05:41.403Z,70.90
2019-05-20T10:06:41.417Z,76.20
2019-05-20T10:07:41.390Z,73.00
2019-05-20T10:08:44.974Z,73.90
2019-05-20T10:09:41.358Z,69.80
2019-05-20T10:10:41.379Z,70.00
2019-05-20T10:11:41.365Z,76.00
2019-05-20T10:12:46.609Z,71.90
2019-05-20T10:13:42.314Z,80.20
2019-05-20T10:14:41.314Z,73.10
2019-05-20T10:15:41.297Z,74.00
2019-05-20T10:16:41.311Z,75.00
2019-05-20T10:17:41.339Z,76.20
2019-05-20T10:18:41.267Z,76.60
2019-05-20T10:19:41.252Z,71.30
2019-05-20T10:20:41.242Z,73.70
2019-05-20T10:21:41.288Z,69.40
2019-05-20T10:22:41.218Z,74.30
2019-05-20T10:23:41.207Z,70.30
2019-05-20T10:24:41.200Z,65.40
2019-05-20T10:25:41.194Z,63.90
2019-05-20T10:26:41.211Z,66.60
2019-05-20T10:27:41.175Z,66.90
2019-05-20T10:28:44.714Z,66.10
2019-05-20T10:29:42.143Z,64.60
2019-05-20T10:30:41.134Z,62.80
2019-05-20T10:31:41.150Z,66.70
2019-05-20T10:32:41.115Z,65.50
2019-05-20T10:33:41.118Z,68.20
2019-05-20T10:34:41.097Z,67.10
2019-05-20T10:35:41.090Z,70.10
2019-05-20T10:36:41.143Z,68.80
2019-05-20T10:37:41.071Z,70.40
2019-05-20T10:38:56.961Z,76.00
2019-05-20T10:39:42.035Z,74.20
2019-05-20T10:40:41.031Z,75.50
2019-05-20T10:41:41.050Z,71.30
2019-05-20T10:42:41.012Z,69.00
2019-05-20T10:43:41.001Z,67.40
2019-05-20T10:44:42.016Z,68.40
2019-05-20T10:45:40.972Z,67.50
2019-05-20T10:46:40.992Z,72.60
2019-05-20T10:47:40.957Z,69.30
2019-05-20T10:48:40.943Z,70.40
2019-05-20T10:49:40.935Z,68.90
2019-05-20T10:50:40.920Z,65.60
2019-05-20T10:51:40.972Z,66.70
2019-05-20T10:52:40.894Z,66.90
2019-05-20T10:53:40.902Z,62.00
2019-05-20T10:54:40.875Z,63.40
2019-05-20T10:55:40.874Z,65.10
2019-05-20T10:56:40.884Z,64.80
2019-05-20T10:57:40.845Z,62.80
2019-05-20T10:58:40.831Z,64.30
2019-05-20T10:59:40.827Z,64.20
2019-05-20T11:01:00.675Z,63.10
2019-05-20T11:01:41.838Z,66.20
2019-05-20T11:02:40.798Z,62.40
2019-05-20T11:03:40.779Z,66.40
2019-05-20T11:04:40.769Z,66.80
2019-05-20T11:05:40.764Z,68.20
2019-05-20T11:06:40.777Z,68.20
2019-05-20T11:07:40.790Z,66.10
2019-05-20T11:08:40.727Z,62.70
2019-05-20T11:09:40.720Z,67.90
2019-05-20T11:10:40.758Z,64.40
2019-05-20T11:11:40.727Z,67.70
2019-05-20T11:12:40.688Z,66.20
2019-05-20T11:13:40.672Z,66.90
2019-05-20T11:14:40.670Z,65.70
2019-05-20T11:15:40.654Z,69.20
2019-05-20T11:16:40.671Z,67.00
2019-05-20T11:17:40.637Z,67.40
2019-05-20T11:18:40.631Z,64.40
2019-05-20T11:19:40.613Z,67.40
2019-05-20T11:20:40.610Z,65.80
2019-05-20T11:21:40.625Z,62.60
2019-05-20T11:22:40.602Z,67.30
2019-05-20T11:23:40.609Z,65.50
2019-05-20T11:24:40.565Z,63.80
2019-05-20T11:25:40.553Z,64.10
2019-05-20T11:26:40.567Z,64.70
2019-05-20T11:27:40.529Z,61.80
2019-05-20T11:28:40.518Z,62.50
2019-05-20T11:29:40.511Z,62.40
2019-05-20T11:30:40.499Z,63.00
2019-05-20T11:31:40.510Z,61.60
2019-05-20T11:32:40.478Z,63.90
2019-05-20T11:33:40.467Z,62.10
2019-05-20T11:34:40.458Z,64.10
2019-05-20T11:35:40.448Z,63.70
2019-05-20T11:36:40.459Z,62.60
2019-05-20T11:37:40.424Z,66.50
2019-05-20T11:38:40.412Z,64.50
2019-05-20T11:39:40.421Z,63.60
2019-05-20T11:40:40.391Z,64.00
2019-05-20T11:41:52.674Z,62.40
2019-05-20T11:42:41.368Z,64.80
2019-05-20T11:43:40.362Z,66.30
2019-05-20T11:44:40.353Z,63.30
2019-05-20T11:45:40.340Z,60.60
2019-05-20T11:46:40.368Z,62.10
2019-05-20T11:47:40.317Z,60.30
2019-05-20T11:48:40.303Z,59.20
2019-05-20T11:49:40.292Z,60.30
2019-05-20T11:50:40.283Z,58.90
2019-05-20T11:51:40.271Z,58.00
2019-05-20T11:52:40.293Z,58.20
2019-05-20T11:53:40.254Z,57.50
2019-05-20T11:54:40.244Z,59.40
2019-05-20T11:55:40.242Z,61.90
2019-05-20T11:56:40.242Z,61.00
2019-05-20T11:57:40.241Z,59.70
2019-05-20T11:58:40.199Z,64.10
2019-05-20T11:59:40.215Z,63.60
2019-05-20T12:00:40.175Z,64.60
2019-05-20T12:01:40.177Z,64.40
2019-05-20T12:02:40.180Z,63.90
2019-05-20T12:03:40.146Z,65.30
2019-05-20T12:04:40.131Z,63.20
2019-05-20T12:05:40.150Z,64.30
2019-05-20T12:06:40.112Z,65.60
2019-05-20T12:07:40.150Z,66.30
2019-05-20T12:08:40.095Z,62.30
2019-05-20T12:09:48.799Z,62.10
2019-05-20T12:10:41.072Z,66.90
2019-05-20T12:11:40.057Z,60.70
2019-05-20T12:12:40.072Z,61.00
2019-05-20T12:13:40.041Z,61.10
2019-05-20T12:14:40.025Z,62.50
2019-05-20T12:15:40.011Z,62.20
2019-05-20T12:16:40.006Z,61.30
2019-05-20T12:17:40.071Z,63.80
2019-05-20T12:18:39.982Z,63.10
2019-05-20T12:19:39.973Z,61.40
2019-05-20T12:20:39.958Z,59.80
2019-05-20T12:21:39.953Z,58.80
2019-05-20T12:22:39.962Z,62.40
2019-05-20T12:23:39.929Z,63.40
2019-05-20T12:24:39.918Z,63.10
2019-05-20T12:25:39.920Z,63.30
2019-05-20T12:26:39.898Z,65.20
2019-05-20T12:27:39.914Z,62.60
2019-05-20T12:28:39.883Z,61.70
2019-05-20T12:29:39.864Z,61.70
2019-05-20T12:30:39.865Z,61.40
2019-05-20T12:31:39.843Z,61.10
2019-05-20T12:32:39.866Z,60.20
2019-05-20T12:33:39.824Z,59.50
2019-05-20T12:34:39.815Z,61.90
2019-05-20T12:35:39.803Z,62.60
2019-05-20T12:36:39.793Z,61.40
2019-05-20T12:37:39.812Z,63.10
2019-05-20T12:38:39.776Z,64.90
2019-05-20T12:39:39.792Z,61.70
2019-05-20T12:40:39.748Z,65.10
2019-05-20T12:41:39.735Z,63.10
2019-05-20T12:42:39.748Z,64.00
2019-05-20T12:43:39.723Z,61.60
2019-05-20T12:44:39.708Z,62.60
2019-05-20T12:45:39.697Z,61.90
2019-05-20T12:46:39.687Z,64.70
2019-05-20T12:47:39.699Z,61.00
2019-05-20T12:48:39.664Z,59.60